Time;durP1;ratioP1;P1;durP2;ratioP2;P2;SDS_P1;SDS_P2;PMS_P1;PMS_P2;Temp;Humidity;BMP_temperature;BMP_pressure;BME280_temperature;BME280_humidity;BME280_pressure;Samples;Min_cycle;Max_cycle;Signal;HPM_P1;HPM_P2
2023/06/26 00:01:32;;;;;;;9.93;8.50;;;18.50;57.60;;;;;;5032808;28;20494;-71
2023/06/26 00:03:59;;;;;;;9.97;8.00;;;18.50;57.20;;;;;;5032830;28;20475;-71
2023/06/26 00:06:27;;;;;;;10.57;8.10;;;18.40;57.70;;;;;;5033159;28;20522;-71
2023/06/26 00:08:55;;;;;;;12.23;9.03;;;18.40;57.40;;;;;;5032853;28;20437;-71
2023/06/26 00:11:22;;;;;;;10.40;8.17;;;18.40;57.50;;;;;;5032719;28;20513;-71
2023/06/26 00:13:50;;;;;;;11.30;8.37;;;18.40;57.60;;;;;;5033074;28;20522;-71
2023/06/26 00:16:17;;;;;;;20.30;8.47;;;18.40;57.40;;;;;;5033258;28;20432;-71
2023/06/26 00:18:44;;;;;;;9.50;7.57;;;18.30;58.00;;;;;;5032615;28;20432;-71
2023/06/26 00:21:11;;;;;;;14.43;8.13;;;18.30;57.60;;;;;;5036265;28;20505;-71
2023/06/26 00:23:39;;;;;;;11.63;9.50;;;18.30;58.20;;;;;;5036569;28;20436;-71
2023/06/26 00:26:06;;;;;;;13.50;9.60;;;18.20;57.70;;;;;;5036797;28;20435;-71
2023/06/26 00:28:33;;;;;;;13.80;8.50;;;18.20;57.60;;;;;;5036416;28;20440;-71
2023/06/26 00:31:00;;;;;;;11.50;8.63;;;18.20;57.80;;;;;;5036103;28;20753;-71
2023/06/26 00:33:27;;;;;;;13.57;9.90;;;18.20;57.90;;;;;;5036031;28;20436;-71
2023/06/26 00:35:54;;;;;;;11.20;8.30;;;18.20;57.90;;;;;;5036603;28;20622;-71
2023/06/26 00:38:21;;;;;;;19.00;10.93;;;18.20;57.90;;;;;;5036247;28;20435;-71
2023/06/26 00:40:50;;;;;;;17.63;10.30;;;18.10;58.00;;;;;;5035970;28;20431;-71
2023/06/26 00:43:17;;;;;;;12.60;9.50;;;18.00;58.40;;;;;;5036147;28;20515;-71
2023/06/26 00:45:44;;;;;;;13.40;10.40;;;17.90;58.50;;;;;;5036153;28;20472;-71
2023/06/26 00:48:12;;;;;;;13.33;9.30;;;17.90;58.70;;;;;;5036306;28;20435;-71
2023/06/26 00:50:40;;;;;;;14.47;8.97;;;17.80;58.90;;;;;;5035589;28;20444;-71
2023/06/26 00:53:07;;;;;;;9.63;8.00;;;17.80;59.10;;;;;;5035081;28;20458;-72
2023/06/26 00:55:34;;;;;;;10.83;8.83;;;17.80;59.20;;;;;;5036160;28;20553;-71
2023/06/26 00:58:02;;;;;;;11.50;9.77;;;17.70;59.40;;;;;;5036173;28;20462;-71
2023/06/26 01:00:29;;;;;;;11.33;8.27;;;17.60;59.60;;;;;;5035811;28;20765;-71
2023/06/26 01:02:58;;;;;;;10.80;8.20;;;17.60;59.70;;;;;;5035656;28;20902;-71
2023/06/26 01:05:26;;;;;;;10.40;8.70;;;17.70;59.90;;;;;;5036038;28;20443;-71
2023/06/26 01:07:53;;;;;;;10.30;8.10;;;17.70;59.90;;;;;;5035642;28;20945;-71
2023/06/26 01:10:20;;;;;;;11.07;8.93;;;17.70;59.90;;;;;;5035302;28;20466;-71
2023/06/26 01:12:47;;;;;;;11.17;8.73;;;17.60;59.90;;;;;;5035557;28;20471;-71
2023/06/26 01:15:16;;;;;;;10.13;7.60;;;17.60;59.90;;;;;;5035690;28;20475;-71
2023/06/26 01:17:45;;;;;;;10.30;8.20;;;17.70;59.70;;;;;;5035790;28;20435;-71
2023/06/26 01:20:13;;;;;;;9.37;7.07;;;17.60;59.70;;;;;;5035750;28;20497;-71
2023/06/26 01:22:46;;;;;;;10.47;8.20;;;17.60;59.80;;;;;;5035061;28;20471;-71
2023/06/26 01:25:22;;;;;;;10.47;8.67;;;17.70;59.70;;;;;;5035656;28;20465;-71
2023/06/26 01:27:53;;;;;;;10.53;8.00;;;17.60;59.80;;;;;;5035713;28;20482;-71
2023/06/26 01:30:22;;;;;;;10.70;8.17;;;17.60;59.90;;;;;;5034471;28;20460;-71
2023/06/26 01:32:49;;;;;;;12.53;9.10;;;17.60;60.00;;;;;;5035282;28;20428;-71
2023/06/26 01:35:17;;;;;;;11.93;8.30;;;17.50;60.10;;;;;;5035160;28;20953;-71
2023/06/26 01:37:44;;;;;;;10.40;7.87;;;17.40;60.30;;;;;;5035444;28;20462;-71
2023/06/26 01:40:12;;;;;;;10.00;8.50;;;17.40;60.70;;;;;;5034810;28;20428;-71
2023/06/26 01:42:39;;;;;;;14.33;8.67;;;17.40;60.90;;;;;;5034546;28;20521;-71
2023/06/26 01:45:13;;;;;;;11.23;8.70;;;17.30;61.20;;;;;;5034776;28;20486;-71
2023/06/26 01:47:45;;;;;;;10.03;8.23;;;17.30;61.30;;;;;;5035338;28;20415;-71
2023/06/26 01:50:17;;;;;;;12.67;8.97;;;17.30;61.50;;;;;;5035342;28;20459;-71
2023/06/26 01:52:53;;;;;;;10.57;7.60;;;17.30;61.50;;;;;;5034915;28;20460;-71
2023/06/26 01:55:27;;;;;;;10.87;8.17;;;17.30;61.50;;;;;;5035168;28;20490;-71
2023/06/26 01:57:57;;;;;;;12.37;7.97;;;17.40;61.60;;;;;;5035134;28;20420;-71
2023/06/26 02:00:27;;;;;;;9.70;7.47;;;17.30;61.50;;;;;;5034876;28;20497;-69
2023/06/26 02:02:54;;;;;;;9.30;7.67;;;17.30;61.50;;;;;;5034012;28;20509;-69
2023/06/26 02:05:21;;;;;;;11.00;8.70;;;17.30;61.50;;;;;;5034941;28;20464;-69
2023/06/26 02:07:48;;;;;;;10.10;7.53;;;17.30;61.30;;;;;;5034858;28;20461;-69
2023/06/26 02:10:15;;;;;;;9.97;7.43;;;17.20;61.50;;;;;;5034118;28;20918;-69
2023/06/26 02:12:42;;;;;;;9.20;7.93;;;17.20;61.80;;;;;;5034124;28;20505;-68
2023/06/26 02:15:10;;;;;;;10.93;8.60;;;17.20;62.00;;;;;;5033922;28;20885;-69
2023/06/26 02:17:38;;;;;;;10.63;7.93;;;17.20;62.20;;;;;;5034653;28;20748;-68
2023/06/26 02:20:09;;;;;;;9.53;7.73;;;17.20;62.20;;;;;;5033620;28;20493;-68
2023/06/26 02:22:36;;;;;;;10.80;8.17;;;17.20;62.20;;;;;;5034364;28;20416;-68
2023/06/26 02:25:03;;;;;;;9.10;7.20;;;17.20;63.00;;;;;;5034689;28;20494;-69
2023/06/26 02:27:30;;;;;;;10.40;8.10;;;17.20;61.80;;;;;;5034429;28;20444;-69
2023/06/26 02:29:57;;;;;;;9.93;8.00;;;17.20;61.70;;;;;;5034012;28;20432;-69
2023/06/26 02:32:24;;;;;;;11.40;8.30;;;17.10;61.60;;;;;;5032480;28;20436;-69
2023/06/26 02:34:52;;;;;;;13.07;9.30;;;17.10;61.80;;;;;;5033933;28;20504;-69
2023/06/26 02:37:19;;;;;;;12.60;8.90;;;17.00;62.00;;;;;;5034438;28;20437;-68
2023/06/26 02:39:46;;;;;;;13.43;9.13;;;16.90;62.60;;;;;;5034393;28;20439;-69
2023/06/26 02:42:13;;;;;;;10.67;8.00;;;16.80;63.20;;;;;;5032809;28;20524;-69
2023/06/26 02:44:40;;;;;;;12.53;8.63;;;16.80;63.60;;;;;;5034306;28;20439;-69
2023/06/26 02:47:07;;;;;;;10.93;8.00;;;16.80;63.80;;;;;;5033736;28;20434;-70
2023/06/26 02:49:34;;;;;;;10.40;8.23;;;16.70;63.70;;;;;;5033871;28;20984;-68
2023/06/26 02:52:03;;;;;;;10.90;8.43;;;16.70;63.90;;;;;;5033365;28;20514;-68
2023/06/26 02:54:30;;;;;;;11.43;8.93;;;16.60;64.00;;;;;;5033710;28;20567;-69
2023/06/26 02:56:57;;;;;;;11.90;8.27;;;16.60;64.50;;;;;;5033803;28;20902;-68
2023/06/26 02:59:24;;;;;;;13.77;7.87;;;16.50;64.40;;;;;;5034105;28;20812;-71
2023/06/26 03:01:51;;;;;;;10.50;8.47;;;16.50;64.40;;;;;;5033212;28;20502;-72
2023/06/26 03:04:21;;;;;;;12.47;8.50;;;16.50;64.30;;;;;;5033619;28;20486;-71
2023/06/26 03:06:48;;;;;;;10.80;7.93;;;16.50;64.30;;;;;;5033859;28;20440;-71
2023/06/26 03:09:17;;;;;;;11.97;8.57;;;16.50;64.40;;;;;;5033827;28;20573;-71
2023/06/26 03:11:44;;;;;;;12.90;8.30;;;16.40;64.90;;;;;;5033358;28;20436;-71
2023/06/26 03:14:11;;;;;;;9.97;8.33;;;16.30;65.10;;;;;;5033680;28;20454;-71
2023/06/26 03:16:38;;;;;;;11.77;8.40;;;16.20;65.30;;;;;;5033543;28;20505;-71
2023/06/26 03:19:05;;;;;;;10.00;8.50;;;16.20;65.50;;;;;;5033704;28;20486;-71
2023/06/26 03:21:33;;;;;;;11.37;8.20;;;16.20;65.40;;;;;;5032539;28;20845;-71
2023/06/26 03:24:00;;;;;;;11.27;9.03;;;16.20;65.60;;;;;;5032821;28;20426;-71
2023/06/26 03:26:28;;;;;;;14.37;10.40;;;16.20;65.90;;;;;;5033582;28;20433;-71
2023/06/26 03:28:55;;;;;;;13.00;9.77;;;16.10;65.90;;;;;;5033150;28;20435;-72
2023/06/26 03:31:22;;;;;;;11.60;8.40;;;16.10;66.40;;;;;;5033065;28;20833;-71
2023/06/26 03:33:49;;;;;;;14.73;8.97;;;16.10;66.60;;;;;;5033479;28;20510;-71
2023/06/26 03:36:16;;;;;;;11.27;8.40;;;16.10;67.40;;;;;;5033429;28;20504;-71
2023/06/26 03:38:43;;;;;;;15.07;9.87;;;16.10;66.80;;;;;;5033360;28;20499;-71
2023/06/26 03:41:10;;;;;;;12.37;9.43;;;16.00;67.10;;;;;;5032669;28;20937;-71
2023/06/26 03:43:39;;;;;;;13.00;10.13;;;16.00;67.50;;;;;;5033531;28;20775;-71
2023/06/26 03:46:06;;;;;;;12.80;10.00;;;16.00;67.70;;;;;;5032950;28;20489;-72
2023/06/26 03:48:33;;;;;;;11.73;9.07;;;16.00;68.10;;;;;;5032863;28;20615;-71
2023/06/26 03:51:01;;;;;;;11.23;8.40;;;16.00;68.50;;;;;;5007530;28;20437;-71
2023/06/26 03:53:28;;;;;;;10.07;8.60;;;16.00;68.50;;;;;;5033321;28;20745;-71
2023/06/26 03:55:55;;;;;;;15.90;10.33;;;16.00;68.50;;;;;;5036307;28;20479;-71
2023/06/26 03:58:22;;;;;;;11.53;8.67;;;16.00;68.50;;;;;;5037402;28;20462;-71
2023/06/26 04:00:50;;;;;;;10.73;8.57;;;16.00;68.80;;;;;;5036499;28;20435;-71
2023/06/26 04:03:17;;;;;;;9.90;7.87;;;16.00;68.80;;;;;;5036218;28;20478;-71
2023/06/26 04:05:44;;;;;;;10.30;8.87;;;16.00;69.20;;;;;;5037370;28;20439;-72
2023/06/26 04:08:11;;;;;;;10.00;7.73;;;16.00;69.30;;;;;;5037221;28;20434;-71
2023/06/26 04:10:38;;;;;;;13.73;7.83;;;16.10;68.80;;;;;;5035902;28;20911;-71
2023/06/26 04:13:05;;;;;;;12.17;8.40;;;16.10;68.50;;;;;;5036937;28;20485;-71
2023/06/26 04:15:32;;;;;;;11.50;8.77;;;16.10;68.40;;;;;;5036671;28;20498;-71
2023/06/26 04:18:00;;;;;;;10.73;8.07;;;16.10;68.80;;;;;;5036765;28;20903;-71
2023/06/26 04:20:27;;;;;;;16.33;9.47;;;16.10;69.20;;;;;;5037048;28;20466;-71
2023/06/26 04:22:54;;;;;;;11.33;8.73;;;16.10;69.20;;;;;;5036259;28;20469;-71
2023/06/26 04:25:21;;;;;;;11.77;8.30;;;16.10;69.40;;;;;;5036900;28;20528;-71
2023/06/26 04:27:48;;;;;;;8.83;7.50;;;16.20;69.40;;;;;;5036848;28;20485;-71
2023/06/26 04:30:16;;;;;;;12.93;8.67;;;16.20;69.80;;;;;;5036663;28;20441;-71
2023/06/26 04:32:43;;;;;;;12.93;9.80;;;16.30;71.20;;;;;;5036412;28;20499;-71
2023/06/26 04:35:11;;;;;;;11.77;8.97;;;16.40;71.80;;;;;;5036460;28;20517;-71
2023/06/26 04:37:38;;;;;;;10.83;8.97;;;16.50;72.20;;;;;;5036445;28;20435;-71
2023/06/26 04:40:07;;;;;;;11.50;8.70;;;16.50;72.80;;;;;;5036699;28;20761;-71
2023/06/26 04:42:35;;;;;;;11.17;8.90;;;16.50;72.60;;;;;;5036285;28;20462;-71
2023/06/26 04:45:02;;;;;;;11.40;9.60;;;16.60;72.10;;;;;;5035942;28;20485;-71
2023/06/26 04:47:29;;;;;;;11.93;8.50;;;16.70;72.30;;;;;;5036339;28;20523;-71
2023/06/26 04:49:57;;;;;;;13.23;10.70;;;16.70;72.40;;;;;;5036406;28;20778;-71
2023/06/26 04:52:25;;;;;;;10.10;8.80;;;16.80;72.60;;;;;;5030901;28;20478;-71
2023/06/26 04:54:52;;;;;;;12.53;8.77;;;16.90;72.70;;;;;;5016528;28;20468;-71
2023/06/26 04:57:19;;;;;;;13.33;8.63;;;17.00;72.30;;;;;;5031834;28;20523;-71
2023/06/26 04:59:51;;;;;;;14.37;9.50;;;17.00;71.90;;;;;;5036265;28;20819;-72
2023/06/26 05:02:18;;;;;;;11.30;8.40;;;17.10;71.70;;;;;;5036306;28;20471;-71
2023/06/26 05:04:46;;;;;;;10.83;8.23;;;17.20;71.60;;;;;;5035529;28;20432;-71
2023/06/26 05:07:13;;;;;;;10.03;8.17;;;17.30;71.80;;;;;;5035857;28;20440;-71
2023/06/26 05:09:41;;;;;;;12.53;8.73;;;17.40;72.00;;;;;;5035361;28;20471;-72
2023/06/26 05:12:09;;;;;;;13.10;9.80;;;17.50;72.00;;;;;;5035637;28;20988;-71
2023/06/26 05:14:36;;;;;;;10.47;7.40;;;17.60;71.90;;;;;;5035964;28;20773;-71
2023/06/26 05:17:03;;;;;;;10.60;7.77;;;17.70;72.30;;;;;;5031782;28;21149;-74
2023/06/26 05:19:30;;;;;;;13.43;10.37;;;17.90;72.60;;;;;;5016905;28;20434;-71
2023/06/26 05:21:57;;;;;;;11.70;8.40;;;18.00;71.80;;;;;;5015583;28;20483;-73
2023/06/26 05:24:25;;;;;;;11.57;9.27;;;18.10;71.40;;;;;;5015544;28;20492;-71
2023/06/26 05:26:54;;;;;;;10.17;8.33;;;18.30;71.60;;;;;;5015660;28;20433;-71
2023/06/26 05:29:22;;;;;;;12.70;8.83;;;18.40;71.50;;;;;;5014506;28;20907;-71
2023/06/26 05:31:54;;;;;;;13.05;9.00;;;18.60;70.70;;;;;;5014942;28;20462;-71
2023/06/26 05:34:23;;;;;;;13.43;8.10;;;18.70;70.20;;;;;;5015338;28;20190;-71
2023/06/26 05:36:58;;;;;;;12.20;8.60;;;18.90;69.80;;;;;;5015345;28;20864;-71
2023/06/26 05:39:26;;;;;;;16.80;8.80;;;19.00;69.40;;;;;;5015611;28;20420;-71
2023/06/26 05:41:55;;;;;;;13.17;8.20;;;19.20;69.30;;;;;;5014988;28;20499;-71
2023/06/26 05:44:22;;;;;;;12.10;8.37;;;19.30;70.10;;;;;;5015255;28;20422;-72
2023/06/26 05:46:49;;;;;;;11.97;8.70;;;19.50;70.70;;;;;;5015153;28;20503;-72
2023/06/26 05:49:16;;;;;;;10.70;8.80;;;19.70;70.90;;;;;;5011659;28;20972;-71
2023/06/26 05:51:44;;;;;;;13.30;7.93;;;19.80;68.00;;;;;;5014217;28;20504;-71
2023/06/26 05:54:13;;;;;;;9.10;6.70;;;20.00;66.60;;;;;;5014047;28;20472;-73
2023/06/26 05:56:40;;;;;;;13.10;8.50;;;20.10;66.80;;;;;;5014841;28;20485;-71
2023/06/26 05:59:10;;;;;;;14.17;7.53;;;20.30;66.90;;;;;;5014935;28;20461;-71
2023/06/26 06:01:37;;;;;;;9.47;7.23;;;20.40;67.00;;;;;;5014583;28;20442;-73
2023/06/26 06:04:04;;;;;;;10.73;7.70;;;20.50;66.20;;;;;;5014523;28;20478;-75
2023/06/26 06:06:31;;;;;;;12.50;8.00;;;20.70;64.80;;;;;;5014305;28;20494;-71
2023/06/26 06:08:58;;;;;;;14.23;8.43;;;20.80;64.70;;;;;;5013510;28;20470;-72
2023/06/26 06:11:25;;;;;;;10.77;9.30;;;20.90;64.80;;;;;;5014261;28;20483;-71
2023/06/26 06:13:52;;;;;;;7.80;6.70;;;21.00;64.60;;;;;;5013572;28;20478;-71
2023/06/26 06:16:21;;;;;;;9.97;6.90;;;21.20;62.70;;;;;;5013886;28;20509;-72
2023/06/26 06:18:50;;;;;;;8.40;6.90;;;21.30;62.40;;;;;;5013522;28;20917;-72
2023/06/26 06:21:18;;;;;;;7.70;5.87;;;21.40;60.90;;;;;;5019661;28;20437;-72
2023/06/26 06:23:46;;;;;;;13.67;9.13;;;21.50;60.90;;;;;;5033786;28;20496;-72
2023/06/26 06:26:13;;;;;;;8.33;5.70;;;21.60;60.10;;;;;;5028296;28;20986;-76
2023/06/26 06:28:40;;;;;;;12.80;6.60;;;21.70;58.60;;;;;;5025960;28;20430;-71
2023/06/26 06:31:07;;;;;;;9.43;6.00;;;21.80;58.20;;;;;;5033747;28;20438;-71
2023/06/26 06:33:36;;;;;;;8.43;6.87;;;21.80;57.60;;;;;;5033735;28;20788;-71
2023/06/26 06:36:07;;;;;;;8.40;6.80;;;22.00;58.20;;;;;;5033733;28;20469;-71
2023/06/26 06:38:38;;;;;;;9.00;6.47;;;22.10;58.50;;;;;;5033852;28;20828;-72
2023/06/26 06:41:05;;;;;;;8.50;6.43;;;22.20;58.10;;;;;;5034035;28;20419;-72
2023/06/26 06:43:34;;;;;;;7.47;6.40;;;22.30;58.10;;;;;;5034082;28;20498;-73
2023/06/26 06:46:01;;;;;;;8.00;6.93;;;22.40;57.90;;;;;;5031809;28;20439;-73
2023/06/26 06:48:29;;;;;;;7.53;6.37;;;22.50;58.10;;;;;;5019883;28;20438;-72
2023/06/26 06:50:57;;;;;;;8.03;6.57;;;22.60;58.10;;;;;;5015300;28;20467;-72
2023/06/26 06:53:24;;;;;;;8.67;6.97;;;22.70;58.60;;;;;;5033959;28;20439;-71
2023/06/26 06:55:51;;;;;;;8.00;6.50;;;22.90;58.60;;;;;;5033540;28;20439;-71
2023/06/26 06:58:18;;;;;;;7.63;5.60;;;23.00;59.30;;;;;;5034297;28;20492;-71
2023/06/26 07:00:45;;;;;;;7.33;6.53;;;23.10;59.60;;;;;;5034273;28;20525;-71
2023/06/26 07:03:13;;;;;;;7.10;6.03;;;23.30;59.60;;;;;;5034348;28;20818;-71
2023/06/26 07:05:42;;;;;;;7.37;6.00;;;23.40;59.60;;;;;;5034137;28;20466;-71
2023/06/26 07:08:10;;;;;;;8.03;6.50;;;23.60;58.60;;;;;;5033784;28;20475;-71
2023/06/26 07:10:37;;;;;;;7.10;5.30;;;23.70;57.70;;;;;;5034061;28;20585;-71
2023/06/26 07:13:05;;;;;;;10.60;5.90;;;23.90;57.90;;;;;;5033645;28;20957;-71
2023/06/26 07:15:32;;;;;;;6.20;5.20;;;24.00;57.60;;;;;;5034004;28;20475;-71
2023/06/26 07:17:59;;;;;;;7.17;5.70;;;24.20;57.60;;;;;;5033546;28;20950;-71
2023/06/26 07:20:30;;;;;;;8.37;6.00;;;24.50;56.20;;;;;;5034008;28;20499;-71
2023/06/26 07:22:57;;;;;;;10.37;6.10;;;24.70;56.00;;;;;;5033958;28;20808;-72
2023/06/26 07:25:26;;;;;;;16.33;6.43;;;24.90;56.10;;;;;;5034131;28;20526;-71
2023/06/26 07:27:53;;;;;;;7.20;5.27;;;25.10;55.20;;;;;;5033233;28;20914;-71
2023/06/26 07:30:20;;;;;;;8.77;6.10;;;25.30;53.40;;;;;;5033472;28;20460;-71
2023/06/26 07:32:47;;;;;;;13.20;5.90;;;25.50;52.90;;;;;;5033629;28;20436;-69
2023/06/26 07:35:14;;;;;;;6.03;5.00;;;25.70;52.20;;;;;;5033609;28;20445;-69
2023/06/26 07:37:41;;;;;;;5.20;4.70;;;25.90;52.40;;;;;;5033201;28;20468;-68
2023/06/26 07:40:09;;;;;;;9.60;5.90;;;26.10;51.50;;;;;;5033682;28;20527;-69
2023/06/26 07:42:38;;;;;;;7.00;5.30;;;26.30;51.10;;;;;;5033267;28;20496;-68
2023/06/26 07:45:09;;;;;;;6.50;5.50;;;26.40;51.10;;;;;;5033506;28;20469;-69
2023/06/26 07:47:37;;;;;;;6.27;5.00;;;26.60;50.00;;;;;;5033489;28;20429;-68
2023/06/26 07:50:04;;;;;;;5.30;4.77;;;26.70;49.00;;;;;;5033548;28;20434;-68
2023/06/26 07:52:31;;;;;;;7.40;5.40;;;26.80;48.90;;;;;;5033505;28;20434;-68
2023/06/26 07:55:05;;;;;;;7.93;5.07;;;26.90;49.30;;;;;;5033148;28;20446;-69
2023/06/26 07:57:39;;;;;;;6.80;5.63;;;27.00;48.50;;;;;;5033508;28;20486;-69
2023/06/26 08:00:07;;;;;;;6.97;5.10;;;27.10;48.20;;;;;;5033435;28;20418;-69
2023/06/26 08:02:34;;;;;;;7.33;5.30;;;27.20;47.80;;;;;;5033490;28;20847;-69
2023/06/26 08:05:01;;;;;;;6.27;5.23;;;27.40;47.80;;;;;;5033435;28;20430;-68
2023/06/26 08:07:28;;;;;;;6.10;4.93;;;27.40;46.90;;;;;;5033115;28;20437;-69
2023/06/26 08:09:56;;;;;;;6.60;5.07;;;27.60;46.50;;;;;;5033281;28;20460;-69
2023/06/26 08:12:23;;;;;;;5.60;4.73;;;27.70;46.70;;;;;;5033213;28;20531;-69
2023/06/26 08:14:51;;;;;;;7.80;5.70;;;27.80;45.50;;;;;;5033311;28;20511;-69
2023/06/26 08:17:18;;;;;;;7.90;5.27;;;27.90;45.20;;;;;;5033155;28;20840;-69
2023/06/26 08:19:45;;;;;;;5.73;5.10;;;28.00;45.40;;;;;;5033300;28;20441;-69
2023/06/26 08:22:12;;;;;;;7.37;5.13;;;28.10;45.40;;;;;;5033036;28;20430;-69
2023/06/26 08:24:41;;;;;;;7.43;5.00;;;28.10;44.90;;;;;;5032894;28;20521;-69
2023/06/26 08:27:11;;;;;;;6.30;5.13;;;28.20;44.20;;;;;;5033214;28;20481;-69
2023/06/26 08:29:38;;;;;;;5.70;5.10;;;28.30;43.80;;;;;;5032857;28;20971;-68
2023/06/26 08:32:07;;;;;;;6.50;4.50;;;28.50;43.00;;;;;;5033084;28;20441;-69
2023/06/26 08:34:34;;;;;;;5.87;5.00;;;28.60;41.80;;;;;;5033350;28;20465;-70
2023/06/26 08:37:01;;;;;;;9.63;5.00;;;28.60;41.20;;;;;;5033016;28;20583;-69
2023/06/26 08:39:28;;;;;;;7.83;6.10;;;28.70;41.10;;;;;;5033182;28;20449;-69
2023/06/26 08:41:55;;;;;;;5.10;4.50;;;28.80;40.90;;;;;;5036063;28;20492;-69
2023/06/26 08:44:24;;;;;;;7.33;5.03;;;28.90;41.10;;;;;;5036432;28;20462;-69
2023/06/26 08:46:51;;;;;;;6.07;4.40;;;29.00;41.90;;;;;;5036799;28;20445;-69
2023/06/26 08:49:26;;;;;;;6.03;5.13;;;29.10;40.80;;;;;;5036641;28;20426;-69
2023/06/26 08:52:03;;;;;;;6.30;5.20;;;29.20;40.80;;;;;;5036794;28;20449;-69
2023/06/26 08:54:41;;;;;;;6.63;5.50;;;29.30;40.30;;;;;;5036585;28;20457;-69
2023/06/26 08:57:08;;;;;;;8.93;5.97;;;29.40;39.50;;;;;;5036107;28;20508;-69
2023/06/26 08:59:35;;;;;;;8.90;5.40;;;29.40;39.20;;;;;;5036401;28;20426;-69
2023/06/26 09:02:03;;;;;;;5.90;4.60;;;29.50;38.80;;;;;;5036379;28;20466;-69
2023/06/26 09:04:32;;;;;;;5.97;4.60;;;29.60;37.60;;;;;;5036551;28;20489;-69
2023/06/26 09:07:01;;;;;;;6.80;5.10;;;29.60;38.00;;;;;;5035987;28;20441;-69
2023/06/26 09:09:29;;;;;;;5.60;4.67;;;29.70;37.80;;;;;;5033698;28;20434;-69
2023/06/26 09:11:56;;;;;;;5.83;4.47;;;29.70;37.20;;;;;;5035898;28;20493;-69
2023/06/26 09:14:24;;;;;;;6.20;4.93;;;29.80;37.30;;;;;;5035346;28;20434;-69
2023/06/26 09:16:51;;;;;;;5.70;4.70;;;29.90;36.20;;;;;;5035640;28;20497;-69
2023/06/26 09:19:21;;;;;;;6.50;4.97;;;30.00;36.30;;;;;;5035876;28;20462;-69
2023/06/26 09:21:51;;;;;;;5.80;4.37;;;30.00;35.70;;;;;;5035632;28;20436;-69
2023/06/26 09:24:18;;;;;;;5.23;4.17;;;30.10;36.40;;;;;;5035967;28;20455;-69
2023/06/26 09:26:45;;;;;;;6.40;4.70;;;30.20;36.40;;;;;;5035690;28;20457;-69
2023/06/26 09:29:14;;;;;;;5.80;4.43;;;30.30;36.70;;;;;;5035640;28;20990;-69
2023/06/26 09:31:42;;;;;;;5.17;4.67;;;30.40;36.10;;;;;;5035509;28;20515;-69
2023/06/26 09:34:10;;;;;;;7.40;5.50;;;30.50;34.00;;;;;;5035438;28;20988;-69
2023/06/26 09:36:37;;;;;;;6.67;5.00;;;30.60;35.00;;;;;;5035624;28;20472;-69
2023/06/26 09:39:10;;;;;;;8.57;4.13;;;30.80;35.70;;;;;;5035686;28;20434;-69
2023/06/26 09:41:38;;;;;;;9.60;4.33;;;30.90;35.10;;;;;;5035336;28;20533;-69
2023/06/26 09:44:08;;;;;;;4.80;3.97;;;31.00;35.00;;;;;;5035286;28;20458;-69
2023/06/26 09:46:35;;;;;;;5.70;4.50;;;31.10;33.10;;;;;;5035494;28;20434;-69
2023/06/26 09:49:11;;;;;;;5.97;4.53;;;31.20;32.70;;;;;;5035161;28;20917;-69
2023/06/26 09:51:40;;;;;;;5.53;4.80;;;31.30;32.40;;;;;;5035504;28;20429;-69
2023/06/26 09:54:17;;;;;;;7.40;4.20;;;31.40;32.40;;;;;;5035318;28;20825;-69
2023/06/26 09:56:48;;;;;;;5.60;4.60;;;31.50;32.60;;;;;;5035270;28;20458;-69
2023/06/26 09:59:16;;;;;;;5.10;4.43;;;31.60;31.60;;;;;;5035081;28;20418;-69
2023/06/26 10:01:47;;;;;;;8.67;5.00;;;31.70;31.80;;;;;;5035248;28;20469;-69
2023/06/26 10:04:15;;;;;;;6.20;4.90;;;31.70;31.60;;;;;;5035150;28;20450;-69
2023/06/26 10:06:47;;;;;;;5.80;5.00;;;31.90;31.80;;;;;;5034740;28;20434;-69
2023/06/26 10:09:18;;;;;;;7.53;4.20;;;32.00;31.10;;;;;;5035091;28;20425;-69
2023/06/26 10:11:50;;;;;;;6.50;5.40;;;32.00;31.40;;;;;;5033623;28;20889;-69
2023/06/26 10:14:18;;;;;;;5.43;4.77;;;32.10;30.80;;;;;;5035074;28;20418;-69
2023/06/26 10:16:47;;;;;;;5.83;5.10;;;32.10;30.70;;;;;;5034752;28;20431;-69
2023/06/26 10:19:15;;;;;;;7.30;5.33;;;32.10;30.00;;;;;;5034866;28;20775;-69
2023/06/26 10:21:42;;;;;;;5.63;4.97;;;32.20;30.40;;;;;;5034857;28;20426;-69
2023/06/26 10:24:12;;;;;;;5.75;5.13;;;32.30;29.80;;;;;;5034606;28;20433;-69
2023/06/26 10:26:45;;;;;;;5.82;5.22;;;32.40;30.10;;;;;;5033440;28;20476;-69
2023/06/26 10:29:14;;;;;;;6.30;5.32;;;32.50;29.90;;;;;;5033623;28;20904;-69
2023/06/26 10:31:45;;;;;;;7.88;5.65;;;32.50;29.90;;;;;;5033414;28;20461;-69
2023/06/26 10:34:12;;;;;;;6.55;5.40;;;32.60;29.20;;;;;;5033564;28;20449;-69
2023/06/26 10:36:39;;;;;;;6.87;4.87;;;32.60;29.60;;;;;;5034556;28;20223;-69
2023/06/26 10:39:07;;;;;;;5.97;4.70;;;32.80;29.10;;;;;;5034154;28;20516;-70
2023/06/26 10:41:38;;;;;;;6.00;5.40;;;32.80;29.90;;;;;;5034456;28;20438;-69
2023/06/26 10:44:12;;;;;;;5.47;4.53;;;32.90;28.80;;;;;;5034231;28;20469;-69
2023/06/26 10:46:52;;;;;;;6.47;4.90;;;32.90;28.60;;;;;;5033417;28;20480;-69
2023/06/26 10:49:21;;;;;;;7.90;4.70;;;32.90;29.00;;;;;;5018685;28;20435;-69
2023/06/26 10:51:49;;;;;;;10.63;5.77;;;32.90;29.10;;;;;;5023332;28;20514;-69
2023/06/26 10:54:18;;;;;;;5.90;5.20;;;32.90;29.20;;;;;;5014114;28;20427;-69
2023/06/26 10:56:58;;;;;;;5.40;4.87;;;32.90;28.70;;;;;;5016444;28;20443;-70
2023/06/26 10:59:27;;;;;;;6.97;4.80;;;32.80;28.30;;;;;;5012519;28;20450;-73
2023/06/26 11:02:11;;;;;;;5.67;5.10;;;32.70;28.70;;;;;;5030590;28;20489;-69
2023/06/26 11:04:54;;;;;;;5.63;5.10;;;32.70;30.00;;;;;;5033015;28;20561;-69
2023/06/26 11:07:22;;;;;;;5.87;4.83;;;32.80;30.00;;;;;;5030856;28;20434;-69
2023/06/26 11:09:57;;;;;;;6.80;5.23;;;32.90;30.40;;;;;;5011863;28;20485;-70
2023/06/26 11:12:37;;;;;;;6.90;5.60;;;33.00;30.40;;;;;;5002136;28;20813;-70
2023/06/26 11:15:09;;;;;;;6.80;4.40;;;33.10;29.30;;;;;;5029912;28;20469;-70
2023/06/26 11:17:36;;;;;;;6.40;5.80;;;33.10;29.20;;;;;;5023551;28;20463;-69
2023/06/26 11:20:05;;;;;;;6.40;5.30;;;33.10;28.40;;;;;;5013568;28;20463;-69
2023/06/26 11:22:38;;;;;;;8.20;5.57;;;33.10;29.10;;;;;;5018132;28;20443;-69
2023/06/26 11:25:08;;;;;;;7.37;5.10;;;33.10;28.50;;;;;;5013760;28;20438;-69
2023/06/26 11:27:39;;;;;;;5.73;4.93;;;33.00;28.70;;;;;;5013536;28;20463;-69
2023/06/26 11:30:09;;;;;;;8.70;5.03;;;33.00;29.30;;;;;;5013820;28;20415;-71
2023/06/26 11:32:37;;;;;;;7.67;5.07;;;33.00;29.40;;;;;;5013679;28;20517;-69
2023/06/26 11:35:05;;;;;;;8.17;5.23;;;33.10;28.80;;;;;;5013486;28;20439;-69
2023/06/26 11:37:33;;;;;;;8.80;5.87;;;33.20;29.30;;;;;;5013263;28;20470;-69
2023/06/26 11:40:00;;;;;;;7.33;5.30;;;33.20;28.80;;;;;;5013710;28;20435;-69
2023/06/26 11:42:32;;;;;;;7.87;5.70;;;33.30;28.90;;;;;;5013355;28;20868;-69
2023/06/26 11:45:05;;;;;;;8.33;6.37;;;33.30;28.80;;;;;;5013430;28;20481;-69
2023/06/26 11:47:33;;;;;;;6.83;5.80;;;33.40;28.80;;;;;;5013336;28;20455;-69
2023/06/26 11:50:05;;;;;;;6.67;5.30;;;33.40;29.10;;;;;;5013416;28;20952;-69
2023/06/26 11:52:34;;;;;;;6.03;4.90;;;33.40;28.40;;;;;;5013393;28;20905;-70
2023/06/26 11:55:02;;;;;;;6.03;5.43;;;33.50;28.70;;;;;;5013575;28;20463;-69
2023/06/26 11:57:31;;;;;;;6.70;5.70;;;33.50;28.30;;;;;;5013422;28;20467;-69
2023/06/26 11:59:58;;;;;;;6.67;5.70;;;33.50;28.80;;;;;;5011485;28;20471;-69
2023/06/26 12:02:26;;;;;;;7.67;5.10;;;33.50;27.70;;;;;;5012565;28;20792;-70
2023/06/26 12:04:55;;;;;;;7.23;5.90;;;33.50;27.80;;;;;;5013157;28;20427;-69
2023/06/26 12:07:22;;;;;;;9.10;6.23;;;33.50;27.90;;;;;;5013280;28;20469;-69
2023/06/26 12:09:50;;;;;;;7.03;5.80;;;33.50;28.30;;;;;;5013548;28;20530;-73
2023/06/26 12:12:19;;;;;;;8.80;6.63;;;33.60;27.80;;;;;;5013491;28;20932;-69
2023/06/26 12:14:47;;;;;;;7.50;6.23;;;33.60;28.20;;;;;;5013213;28;20471;-69
2023/06/26 12:17:18;;;;;;;7.03;6.30;;;33.60;28.80;;;;;;5016843;28;20470;-69
2023/06/26 12:19:47;;;;;;;6.80;6.10;;;33.70;28.80;;;;;;5017145;28;20889;-69
2023/06/26 12:22:16;;;;;;;6.60;5.90;;;33.70;28.00;;;;;;5016937;28;20925;-69
2023/06/26 12:24:44;;;;;;;7.10;5.90;;;33.80;28.90;;;;;;5016948;28;20431;-69
2023/06/26 12:27:19;;;;;;;6.87;6.07;;;33.80;28.40;;;;;;5017208;28;20455;-72
2023/06/26 12:29:50;;;;;;;9.47;8.17;;;33.90;28.50;;;;;;5017292;28;20472;-69
2023/06/26 12:32:17;;;;;;;8.73;6.40;;;33.90;28.20;;;;;;5016767;28;20419;-69
2023/06/26 12:34:49;;;;;;;6.53;5.93;;;33.90;28.40;;;;;;5015770;28;20486;-70
2023/06/26 12:37:18;;;;;;;7.00;6.20;;;33.80;27.90;;;;;;5016225;28;20644;-69
2023/06/26 12:39:50;;;;;;;6.97;6.00;;;33.80;27.30;;;;;;5016946;28;20937;-69
2023/06/26 12:42:21;;;;;;;7.13;6.33;;;33.60;27.60;;;;;;5016322;28;20507;-69
2023/06/26 12:44:48;;;;;;;6.67;5.70;;;33.60;28.20;;;;;;5016930;28;20416;-69
2023/06/26 12:47:17;;;;;;;8.07;5.40;;;33.50;28.40;;;;;;5017000;28;20821;-69
2023/06/26 12:49:46;;;;;;;6.30;5.70;;;33.50;28.80;;;;;;5016508;28;20971;-69